Estación Meteorológica Peña el Pijo (Robertgarden) [ 12/09/19 16:26:03 CET ]

Fecha Hora Presion(HPa) Temp (°C) Humedad % Rocio (°C) Viento ( m/s) Direccion Lluvia 1Hora(mm) Lluvia 24H(mm) LLuvia Total(mm)
2019-Sep-07 01:01:46 1011.900 18.1 77 14.0         391.83
2019-Sep-07 02:01:52 1012.300 17.3 79 13.6         391.83
2019-Sep-07 03:02:13 1012.100 15.5 80 12.1         391.83
2019-Sep-07 04:01:49 1011.800 14.4 83 11.5         391.83
2019-Sep-07 05:01:50 1011.500 14.3 85 11.8         391.83
2019-Sep-07 06:01:49 1011.100 13.3 86 11.0         391.83
2019-Sep-07 07:01:52 1011.300 12.3 87 10.2         391.83
2019-Sep-07 08:01:49 1011.900 11.8 87 9.7         391.83
2019-Sep-07 09:01:39 1012.000 13.3 88 11.3         391.83
2019-Sep-07 10:01:57 1012.300 16.9 89 15.1         391.83
2019-Sep-07 11:01:40 1012.400 20.2 72 15.0         391.83
2019-Sep-07 12:01:55 1012.300 21.2 63 13.9         391.83
2019-Sep-07 13:01:50 1011.700 25.9 51 15.0         391.83
2019-Sep-07 14:01:43 1011.400 28.4 44 14.6         391.83
2019-Sep-07 15:01:47 1010.700 27.8 42 13.7         391.83
2019-Sep-07 16:01:56 1010.400 25.9 43 12.3         391.83
2019-Sep-07 17:01:47 1010.200 24.7 48 12.9         391.83
2019-Sep-07 18:01:50 1010.000 23.2 53 13.0         391.83
2019-Sep-07 19:01:39 1009.700 21.9 57 13.0         391.83
2019-Sep-07 20:01:41 1009.900 20.8 61 13.0         391.83
2019-Sep-07 21:02:02 1010.900 19.5 68 13.4         391.83
2019-Sep-07 22:01:40 1011.600 18.2 73 13.3         391.83
2019-Sep-07 23:01:39 1012.000 17.6 76 13.3         391.83

Temperatura Máxima:28°    Temperatura Mínima:11°
Presión Máxima:1012.400 Hpa    Presión Mínima:1009.700 Hpa


Volver